sensor_id;sensor_type;location;lat;lon;timestamp;P1;durP1;ratioP1;P2;durP2;ratioP2
22863;SDS011;11599;49.882;8.680;2022-12-05T02:08:06;31.03;;;12.63;;
22863;SDS011;11599;49.882;8.680;2022-12-05T02:18:33;29.27;;;12.17;;
22863;SDS011;11599;49.882;8.680;2022-12-05T02:39:42;29.60;;;11.60;;
22863;SDS011;11599;49.882;8.680;2022-12-05T02:50:05;34.90;;;11.93;;
22863;SDS011;11599;49.882;8.680;2022-12-05T03:00:29;33.63;;;11.63;;
22863;SDS011;11599;49.882;8.680;2022-12-05T03:10:50;30.13;;;11.37;;
22863;SDS011;11599;49.882;8.680;2022-12-05T03:21:17;36.17;;;12.33;;
22863;SDS011;11599;49.882;8.680;2022-12-05T03:31:41;35.60;;;12.10;;
22863;SDS011;11599;49.882;8.680;2022-12-05T03:42:08;35.47;;;12.73;;
22863;SDS011;11599;49.882;8.680;2022-12-05T03:52:31;33.73;;;11.87;;
22863;SDS011;11599;49.882;8.680;2022-12-05T04:02:56;34.20;;;11.13;;
22863;SDS011;11599;49.882;8.680;2022-12-05T04:13:22;35.50;;;12.13;;
22863;SDS011;11599;49.882;8.680;2022-12-05T04:23:46;38.80;;;11.87;;
22863;SDS011;11599;49.882;8.680;2022-12-05T04:34:28;35.83;;;12.43;;
22863;SDS011;11599;49.882;8.680;2022-12-05T04:44:53;36.17;;;12.00;;
22863;SDS011;11599;49.882;8.680;2022-12-05T04:55:15;46.10;;;13.67;;
22863;SDS011;11599;49.882;8.680;2022-12-05T05:05:41;36.90;;;12.67;;
22863;SDS011;11599;49.882;8.680;2022-12-05T05:16:05;44.57;;;12.70;;
22863;SDS011;11599;49.882;8.680;2022-12-05T05:26:28;45.20;;;13.47;;
22863;SDS011;11599;49.882;8.680;2022-12-05T05:36:50;44.43;;;14.03;;
22863;SDS011;11599;49.882;8.680;2022-12-05T05:47:13;56.67;;;15.23;;
22863;SDS011;11599;49.882;8.680;2022-12-05T05:57:35;42.53;;;14.50;;
22863;SDS011;11599;49.882;8.680;2022-12-05T06:07:58;44.77;;;14.37;;
22863;SDS011;11599;49.882;8.680;2022-12-05T06:18:19;53.17;;;14.67;;
22863;SDS011;11599;49.882;8.680;2022-12-05T06:28:42;64.77;;;14.07;;
22863;SDS011;11599;49.882;8.680;2022-12-05T06:39:04;50.00;;;13.17;;
22863;SDS011;11599;49.882;8.680;2022-12-05T06:49:26;49.37;;;13.57;;
22863;SDS011;11599;49.882;8.680;2022-12-05T06:59:52;62.10;;;14.73;;
22863;SDS011;11599;49.882;8.680;2022-12-05T07:10:35;51.37;;;15.40;;
22863;SDS011;11599;49.882;8.680;2022-12-05T07:20:57;40.20;;;13.63;;
22863;SDS011;11599;49.882;8.680;2022-12-05T07:31:20;42.77;;;12.73;;
22863;SDS011;11599;49.882;8.680;2022-12-05T07:41:42;50.80;;;14.63;;
22863;SDS011;11599;49.882;8.680;2022-12-05T07:52:08;52.63;;;15.63;;
22863;SDS011;11599;49.882;8.680;2022-12-05T08:02:30;52.30;;;16.07;;
22863;SDS011;11599;49.882;8.680;2022-12-05T08:12:54;59.83;;;16.07;;
22863;SDS011;11599;49.882;8.680;2022-12-05T08:23:15;55.23;;;16.73;;
22863;SDS011;11599;49.882;8.680;2022-12-05T08:33:38;39.00;;;14.17;;
22863;SDS011;11599;49.882;8.680;2022-12-05T08:44:00;38.03;;;12.73;;
22863;SDS011;11599;49.882;8.680;2022-12-05T08:54:23;40.00;;;13.00;;
22863;SDS011;11599;49.882;8.680;2022-12-05T09:04:48;41.77;;;13.80;;
22863;SDS011;11599;49.882;8.680;2022-12-05T09:15:11;38.10;;;12.27;;
22863;SDS011;11599;49.882;8.680;2022-12-05T09:25:32;35.30;;;12.90;;
22863;SDS011;11599;49.882;8.680;2022-12-05T09:35:55;35.57;;;13.47;;
22863;SDS011;11599;49.882;8.680;2022-12-05T09:46:18;38.03;;;13.53;;
22863;SDS011;11599;49.882;8.680;2022-12-05T09:56:43;37.40;;;12.70;;
22863;SDS011;11599;49.882;8.680;2022-12-05T10:07:06;39.57;;;13.10;;
22863;SDS011;11599;49.882;8.680;2022-12-05T10:17:32;47.07;;;14.30;;
22863;SDS011;11599;49.882;8.680;2022-12-05T10:27:55;42.27;;;15.10;;
22863;SDS011;11599;49.882;8.680;2022-12-05T10:38:21;38.07;;;13.57;;
22863;SDS011;11599;49.882;8.680;2022-12-05T10:48:43;45.23;;;14.83;;
22863;SDS011;11599;49.882;8.680;2022-12-05T10:59:10;47.37;;;16.43;;
22863;SDS011;11599;49.882;8.680;2022-12-05T11:09:32;49.30;;;15.83;;
22863;SDS011;11599;49.882;8.680;2022-12-05T11:19:55;39.43;;;13.50;;
22863;SDS011;11599;49.882;8.680;2022-12-05T11:30:17;40.73;;;14.60;;
22863;SDS011;11599;49.882;8.680;2022-12-05T11:40:42;39.13;;;13.13;;
22863;SDS011;11599;49.882;8.680;2022-12-05T11:51:14;38.93;;;13.47;;
22863;SDS011;11599;49.882;8.680;2022-12-05T12:01:40;39.07;;;13.13;;
22863;SDS011;11599;49.882;8.680;2022-12-05T12:12:06;37.50;;;12.80;;
22863;SDS011;11599;49.882;8.680;2022-12-05T12:22:37;33.63;;;12.50;;
22863;SDS011;11599;49.882;8.680;2022-12-05T12:33:08;30.87;;;12.43;;
22863;SDS011;11599;49.882;8.680;2022-12-05T12:43:43;33.40;;;13.17;;
22863;SDS011;11599;49.882;8.680;2022-12-05T12:54:14;32.77;;;12.70;;
22863;SDS011;11599;49.882;8.680;2022-12-05T13:04:51;39.67;;;13.33;;
22863;SDS011;11599;49.882;8.680;2022-12-05T13:15:16;35.33;;;13.37;;
22863;SDS011;11599;49.882;8.680;2022-12-05T13:25:48;38.23;;;14.07;;
22863;SDS011;11599;49.882;8.680;2022-12-05T13:36:18;43.87;;;15.57;;
22863;SDS011;11599;49.882;8.680;2022-12-05T13:46:59;41.53;;;14.73;;
22863;SDS011;11599;49.882;8.680;2022-12-05T14:18:51;29.87;;;12.87;;
22863;SDS011;11599;49.882;8.680;2022-12-05T14:29:21;31.93;;;12.83;;
22863;SDS011;11599;49.882;8.680;2022-12-05T14:39:47;27.90;;;12.20;;
22863;SDS011;11599;49.882;8.680;2022-12-05T14:50:21;30.40;;;13.00;;
22863;SDS011;11599;49.882;8.680;2022-12-05T15:00:45;31.43;;;13.07;;
22863;SDS011;11599;49.882;8.680;2022-12-05T15:11:15;28.20;;;12.57;;
22863;SDS011;11599;49.882;8.680;2022-12-05T15:21:50;28.90;;;13.03;;
22863;SDS011;11599;49.882;8.680;2022-12-05T15:32:16;30.20;;;11.93;;
22863;SDS011;11599;49.882;8.680;2022-12-05T15:42:41;27.13;;;11.37;;
22863;SDS011;11599;49.882;8.680;2022-12-05T15:53:09;23.77;;;10.93;;
22863;SDS011;11599;49.882;8.680;2022-12-05T16:03:39;22.87;;;10.23;;
22863;SDS011;11599;49.882;8.680;2022-12-05T16:14:05;25.40;;;10.63;;
22863;SDS011;11599;49.882;8.680;2022-12-05T16:24:31;21.27;;;8.83;;
22863;SDS011;11599;49.882;8.680;2022-12-05T16:34:58;17.40;;;7.93;;
22863;SDS011;11599;49.882;8.680;2022-12-05T16:45:36;17.23;;;6.97;;
22863;SDS011;11599;49.882;8.680;2022-12-05T16:55:57;10.67;;;4.90;;
22863;SDS011;11599;49.882;8.680;2022-12-05T17:06:24;10.50;;;5.03;;
22863;SDS011;11599;49.882;8.680;2022-12-05T17:16:45;11.10;;;4.27;;
22863;SDS011;11599;49.882;8.680;2022-12-05T17:27:09;6.70;;;3.50;;
22863;SDS011;11599;49.882;8.680;2022-12-05T17:37:31;5.27;;;3.17;;
22863;SDS011;11599;49.882;8.680;2022-12-05T17:47:54;6.57;;;3.20;;
22863;SDS011;11599;49.882;8.680;2022-12-05T17:58:15;4.87;;;2.50;;
22863;SDS011;11599;49.882;8.680;2022-12-05T18:08:38;8.47;;;3.53;;
22863;SDS011;11599;49.882;8.680;2022-12-05T18:19:02;5.50;;;3.10;;
22863;SDS011;11599;49.882;8.680;2022-12-05T18:29:25;5.03;;;3.03;;
22863;SDS011;11599;49.882;8.680;2022-12-05T18:39:47;5.57;;;2.70;;
22863;SDS011;11599;49.882;8.680;2022-12-05T18:50:10;5.33;;;2.97;;
22863;SDS011;11599;49.882;8.680;2022-12-05T19:00:31;6.17;;;2.80;;
22863;SDS011;11599;49.882;8.680;2022-12-05T19:11:02;6.57;;;3.20;;
22863;SDS011;11599;49.882;8.680;2022-12-05T19:21:28;8.10;;;3.60;;
22863;SDS011;11599;49.882;8.680;2022-12-05T19:31:54;9.97;;;4.30;;
22863;SDS011;11599;49.882;8.680;2022-12-05T19:42:15;8.67;;;4.70;;
22863;SDS011;11599;49.882;8.680;2022-12-05T19:52:38;8.63;;;4.30;;
22863;SDS011;11599;49.882;8.680;2022-12-05T20:03:00;5.53;;;3.47;;
22863;SDS011;11599;49.882;8.680;2022-12-05T20:13:23;8.60;;;4.47;;
22863;SDS011;11599;49.882;8.680;2022-12-05T20:23:45;7.57;;;3.70;;
22863;SDS011;11599;49.882;8.680;2022-12-05T20:34:09;6.80;;;3.63;;
22863;SDS011;11599;49.882;8.680;2022-12-05T20:44:39;7.23;;;3.97;;
22863;SDS011;11599;49.882;8.680;2022-12-05T20:55:02;7.63;;;3.60;;
22863;SDS011;11599;49.882;8.680;2022-12-05T21:05:24;7.23;;;3.87;;
22863;SDS011;11599;49.882;8.680;2022-12-05T21:15:47;6.10;;;3.50;;
22863;SDS011;11599;49.882;8.680;2022-12-05T21:26:16;7.37;;;3.40;;
22863;SDS011;11599;49.882;8.680;2022-12-05T21:47:11;6.77;;;3.30;;
22863;SDS011;11599;49.882;8.680;2022-12-05T21:57:33;9.10;;;3.33;;
22863;SDS011;11599;49.882;8.680;2022-12-05T22:08:00;8.20;;;3.30;;
22863;SDS011;11599;49.882;8.680;2022-12-05T22:18:22;5.10;;;2.80;;
22863;SDS011;11599;49.882;8.680;2022-12-05T22:29:04;6.37;;;3.20;;
22863;SDS011;11599;49.882;8.680;2022-12-05T22:39:25;7.67;;;3.17;;
22863;SDS011;11599;49.882;8.680;2022-12-05T22:49:50;6.40;;;3.57;;
22863;SDS011;11599;49.882;8.680;2022-12-05T23:00:24;7.50;;;3.60;;
22863;SDS011;11599;49.882;8.680;2022-12-05T23:10:49;9.30;;;3.20;;
22863;SDS011;11599;49.882;8.680;2022-12-05T23:21:12;4.93;;;2.87;;
22863;SDS011;11599;49.882;8.680;2022-12-05T23:31:35;8.10;;;3.60;;
22863;SDS011;11599;49.882;8.680;2022-12-05T23:41:57;5.37;;;2.80;;
22863;SDS011;11599;49.882;8.680;2022-12-05T23:52:20;7.20;;;3.63;;
